createdAt,value
2018-06-20T00:00:08.704Z,101205
2018-06-20T00:02:37.532Z,101206
2018-06-20T00:05:06.380Z,101209
2018-06-20T00:07:35.221Z,101212
2018-06-20T00:10:04.071Z,101200
2018-06-20T00:12:32.915Z,101197
2018-06-20T00:15:01.754Z,101196
2018-06-20T00:17:30.599Z,101199
2018-06-20T00:19:59.439Z,101191
2018-06-20T00:22:28.276Z,101191
2018-06-20T00:24:57.135Z,101187
2018-06-20T00:27:25.975Z,101190
2018-06-20T00:29:54.837Z,101196
2018-06-20T00:32:23.663Z,101187
2018-06-20T00:34:52.510Z,101199
2018-06-20T00:37:21.349Z,101197
2018-06-20T00:39:50.926Z,101196
2018-06-20T00:42:19.761Z,101195
2018-06-20T00:44:49.346Z,101194
2018-06-20T00:47:18.182Z,101183
2018-06-20T00:49:47.022Z,101189
2018-06-20T00:52:15.866Z,101195
2018-06-20T00:54:44.702Z,101192
2018-06-20T00:57:14.150Z,101194
2018-06-20T00:59:42.994Z,101190
2018-06-20T01:02:11.901Z,101192
2018-06-20T01:04:40.733Z,101189
2018-06-20T01:07:09.585Z,101189
2018-06-20T01:09:38.437Z,101174
2018-06-20T01:12:07.273Z,101185
2018-06-20T01:14:36.846Z,101177
2018-06-20T01:17:05.690Z,101188
2018-06-20T01:19:34.525Z,101182
2018-06-20T01:22:03.361Z,101179
2018-06-20T01:24:32.199Z,101175
2018-06-20T01:27:01.048Z,101180
2018-06-20T01:29:29.882Z,101187
2018-06-20T01:31:58.732Z,101181
2018-06-20T01:34:27.571Z,101181
2018-06-20T01:36:56.411Z,101177
2018-06-20T01:39:25.259Z,101174
2018-06-20T01:41:54.106Z,101178
2018-06-20T01:44:22.948Z,101173
2018-06-20T01:46:52.533Z,101175
2018-06-20T01:49:21.391Z,101168
2018-06-20T01:51:50.235Z,101168
2018-06-20T01:54:19.825Z,101166
2018-06-20T01:56:49.400Z,101169
2018-06-20T01:59:18.238Z,101164
2018-06-20T02:01:47.818Z,101164
2018-06-20T02:04:16.660Z,101162
2018-06-20T02:06:45.502Z,101160
2018-06-20T02:09:14.336Z,101158
2018-06-20T02:11:43.178Z,101163
2018-06-20T02:14:12.021Z,101161
2018-06-20T02:16:40.866Z,101161
2018-06-20T02:19:09.726Z,101163
2018-06-20T02:21:38.558Z,101158
2018-06-20T02:24:07.390Z,101151
2018-06-20T02:26:36.245Z,101158
2018-06-20T02:29:05.085Z,101155
2018-06-20T02:31:33.928Z,101149
2018-06-20T02:34:02.768Z,101147
2018-06-20T02:36:31.639Z,101156
2018-06-20T02:39:00.443Z,101148
2018-06-20T02:41:29.285Z,101143
2018-06-20T02:43:58.123Z,101145
2018-06-20T02:46:26.965Z,101143
2018-06-20T02:48:55.796Z,101150
2018-06-20T02:51:24.633Z,101146
2018-06-20T02:53:54.216Z,101142
2018-06-20T02:56:23.057Z,101148
2018-06-20T02:58:51.893Z,101141
2018-06-20T03:01:20.729Z,101148
2018-06-20T03:03:49.588Z,101151
2018-06-20T03:06:18.431Z,101150
2018-06-20T03:08:47.261Z,101147
2018-06-20T03:11:16.846Z,101145
2018-06-20T03:13:45.687Z,101140
2018-06-20T03:16:14.525Z,101136
2018-06-20T03:18:43.358Z,101132
2018-06-20T03:21:12.936Z,101141
2018-06-20T03:23:41.776Z,101143
2018-06-20T03:26:10.621Z,101135
2018-06-20T03:28:39.465Z,101132
2018-06-20T03:31:08.307Z,101134
2018-06-20T03:33:37.890Z,101131
2018-06-20T03:36:06.729Z,101170
2018-06-20T03:38:35.577Z,101137
2018-06-20T03:41:04.429Z,101137
2018-06-20T03:43:33.260Z,101136
2018-06-20T03:46:02.849Z,101133
2018-06-20T03:48:31.676Z,101136
2018-06-20T03:51:00.519Z,101125
2018-06-20T03:53:29.353Z,101135
2018-06-20T03:55:58.187Z,101125
2018-06-20T03:58:27.030Z,101128
2018-06-20T04:00:55.866Z,101130
2018-06-20T04:03:24.715Z,101125
2018-06-20T04:05:53.554Z,101131
2018-06-20T04:08:22.384Z,101130
2018-06-20T04:10:51.967Z,101123
2018-06-20T04:13:20.802Z,101126
2018-06-20T04:15:49.643Z,101119
2018-06-20T04:18:18.498Z,101123
2018-06-20T04:20:47.319Z,101116
2018-06-20T04:23:16.154Z,101121
2018-06-20T04:25:45.016Z,101108
2018-06-20T04:28:13.862Z,101118
2018-06-20T04:30:42.697Z,101112
2018-06-20T04:33:12.279Z,101119
2018-06-20T04:35:41.719Z,101121
2018-06-20T04:38:10.554Z,101112
2018-06-20T04:40:39.402Z,101111
2018-06-20T04:43:08.247Z,101116
2018-06-20T04:45:37.085Z,101115
2018-06-20T04:48:05.933Z,101113
2018-06-20T04:50:34.779Z,101107
2018-06-20T04:53:03.629Z,101113
2018-06-20T04:55:32.536Z,101106
2018-06-20T04:58:01.320Z,101114
2018-06-20T05:00:30.904Z,101118
2018-06-20T05:02:59.742Z,101111
2018-06-20T05:05:28.582Z,101103
2018-06-20T05:07:57.433Z,101113
2018-06-20T05:10:26.274Z,101110
2018-06-20T05:12:55.123Z,101107
2018-06-20T05:15:23.954Z,101109
2018-06-20T05:17:52.810Z,101112
2018-06-20T05:20:21.643Z,101113
2018-06-20T05:22:50.483Z,101114
2018-06-20T05:25:19.318Z,101110
2018-06-20T05:27:48.891Z,101118
2018-06-20T05:30:17.740Z,101115
2018-06-20T05:32:46.593Z,101109
2018-06-20T05:35:15.419Z,101115
2018-06-20T05:37:44.262Z,101116
2018-06-20T05:40:13.099Z,101115
2018-06-20T05:42:41.950Z,101114
2018-06-20T05:45:10.785Z,101114
2018-06-20T05:47:39.634Z,101113
2018-06-20T05:50:08.475Z,101112
2018-06-20T05:52:37.318Z,101104
2018-06-20T05:55:06.159Z,101113
2018-06-20T05:57:35.002Z,101114
2018-06-20T06:00:04.691Z,101120
2018-06-20T06:02:33.336Z,101117
2018-06-20T06:05:02.185Z,101115
2018-06-20T06:07:31.038Z,101112
2018-06-20T06:09:59.876Z,101115
2018-06-20T06:12:29.479Z,101115
2018-06-20T06:14:58.328Z,101113
2018-06-20T06:17:27.147Z,101114
2018-06-20T06:19:56.011Z,101115
2018-06-20T06:22:24.848Z,101108
2018-06-20T06:24:54.432Z,101116
2018-06-20T06:27:23.266Z,101123
2018-06-20T06:29:52.130Z,101117
2018-06-20T06:32:20.961Z,101119
2018-06-20T06:34:49.831Z,101117
2018-06-20T06:37:18.685Z,101114
2018-06-20T06:39:47.531Z,101111
2018-06-20T06:42:16.383Z,101113
2018-06-20T06:44:45.264Z,101106
2018-06-20T06:47:14.843Z,101104
2018-06-20T06:49:43.701Z,101103
2018-06-20T06:52:13.262Z,101105
2018-06-20T06:54:42.966Z,101095
2018-06-20T06:57:11.746Z,101110
2018-06-20T06:59:40.585Z,101103
2018-06-20T07:02:09.427Z,101100
2018-06-20T07:04:38.267Z,101093
2018-06-20T07:07:07.104Z,101093
2018-06-20T07:09:35.941Z,101114
2018-06-20T07:12:04.782Z,101093
2018-06-20T07:14:33.625Z,101088
2018-06-20T07:17:02.543Z,101094
2018-06-20T07:19:31.394Z,101091
2018-06-20T07:22:00.956Z,101090
2018-06-20T07:24:29.829Z,101088
2018-06-20T07:26:58.646Z,101083
2018-06-20T07:29:27.515Z,101080
2018-06-20T07:31:56.356Z,101074
2018-06-20T07:34:25.224Z,101069
2018-06-20T07:36:54.069Z,101073
2018-06-20T07:39:22.905Z,101074
2018-06-20T07:41:52.497Z,101073
2018-06-20T07:44:21.335Z,101069
2018-06-20T07:46:50.241Z,101074
2018-06-20T07:49:19.779Z,101070
2018-06-20T07:51:48.618Z,101068
2018-06-20T07:54:17.463Z,101063
2018-06-20T07:56:46.321Z,101061
2018-06-20T07:59:15.161Z,101054
2018-06-20T08:04:40.360Z,101058
2018-06-20T08:07:09.275Z,101055
2018-06-20T08:09:38.149Z,101055
2018-06-20T08:12:10.014Z,101046
2018-06-20T08:14:45.763Z,101049
2018-06-20T08:17:14.406Z,101048
2018-06-20T08:19:45.083Z,101048
2018-06-20T08:22:13.920Z,101038
2018-06-20T08:24:42.757Z,101039
2018-06-20T08:27:12.336Z,101037
2018-06-20T08:29:41.167Z,101041
2018-06-20T08:32:10.017Z,101033
2018-06-20T08:34:38.862Z,101037
2018-06-20T08:37:07.695Z,101031
2018-06-20T08:39:36.545Z,101032
2018-06-20T08:42:05.384Z,101034
2018-06-20T08:44:34.217Z,101038
2018-06-20T08:47:03.059Z,101033
2018-06-20T08:49:31.891Z,101031
2018-06-20T08:52:00.724Z,101032
2018-06-20T08:54:29.562Z,101037
2018-06-20T08:56:58.396Z,101025
2018-06-20T08:59:27.263Z,101028
2018-06-20T09:01:56.098Z,101030
2018-06-20T09:04:24.938Z,101025
2018-06-20T09:06:55.622Z,101028
2018-06-20T09:09:30.095Z,101024
2018-06-20T09:11:59.035Z,101021
2018-06-20T09:14:27.965Z,101019
2018-06-20T09:17:01.632Z,101019
2018-06-20T09:19:31.446Z,101022
2018-06-20T09:22:00.312Z,101022
2018-06-20T09:24:29.129Z,101019
2018-06-20T09:26:58.711Z,101024
2018-06-20T09:29:27.998Z,101010
2018-06-20T09:31:56.861Z,101010
2018-06-20T09:34:25.700Z,101012
2018-06-20T09:36:54.589Z,101013
2018-06-20T09:39:23.395Z,101008
2018-06-20T09:41:52.254Z,101009
2018-06-20T09:44:21.104Z,101006
2018-06-20T09:46:49.951Z,101004
2018-06-20T09:49:18.811Z,100998
2018-06-20T09:51:47.662Z,100998
2018-06-20T09:54:16.562Z,100995
2018-06-20T09:56:45.341Z,100993
2018-06-20T09:59:14.182Z,100996
2018-06-20T10:01:48.613Z,100994
2018-06-20T10:04:21.357Z,100986
2018-06-20T10:06:55.838Z,100987
2018-06-20T10:09:25.417Z,100994
2018-06-20T10:11:54.260Z,101000
2018-06-20T10:14:23.127Z,100996
2018-06-20T10:16:52.703Z,100989
2018-06-20T10:19:21.536Z,100986
2018-06-20T10:21:50.382Z,100985
2018-06-20T10:24:19.231Z,100981
2018-06-20T10:26:48.067Z,100970
2018-06-20T10:29:16.926Z,100976
2018-06-20T10:31:45.767Z,100963
2018-06-20T10:34:15.370Z,100966
2018-06-20T10:36:44.207Z,100972
2018-06-20T10:39:13.039Z,100968
2018-06-20T10:41:42.016Z,100962
2018-06-20T10:44:10.738Z,100959
2018-06-20T10:46:45.228Z,100962
2018-06-20T10:49:17.239Z,100958
2018-06-20T10:51:44.093Z,100949
2018-06-20T10:54:12.856Z,100950
2018-06-20T10:56:41.698Z,100946
2018-06-20T10:59:16.550Z,100946
2018-06-20T11:01:46.141Z,100945
2018-06-20T11:04:15.753Z,100933
2018-06-20T11:06:46.603Z,100927
2018-06-20T11:09:20.844Z,100931
2018-06-20T11:11:51.422Z,100926
2018-06-20T11:14:20.282Z,100938
2018-06-20T11:16:49.118Z,100922
2018-06-20T11:19:17.949Z,100924
2018-06-20T11:21:46.786Z,100917
2018-06-20T11:24:16.218Z,100917
2018-06-20T11:26:45.076Z,100910
2018-06-20T11:29:13.987Z,100900
2018-06-20T11:31:42.767Z,100904
2018-06-20T11:34:11.622Z,100896
2018-06-20T11:36:40.458Z,100891
2018-06-20T11:39:09.303Z,100895
2018-06-20T11:41:38.136Z,100891
2018-06-20T11:44:06.983Z,100886
2018-06-20T11:46:35.817Z,100880
2018-06-20T11:49:05.397Z,100874
2018-06-20T11:51:34.248Z,100876
2018-06-20T11:54:03.082Z,100874
2018-06-20T11:56:31.932Z,100871
2018-06-20T11:59:00.804Z,100868
2018-06-20T12:01:32.532Z,100862
2018-06-20T12:04:06.244Z,100856
2018-06-20T12:06:35.834Z,100853
2018-06-20T12:09:07.590Z,100852
2018-06-20T12:11:41.919Z,100847
2018-06-20T12:14:10.804Z,100844
2018-06-20T12:16:39.658Z,100849
2018-06-20T12:19:14.053Z,100845
2018-06-20T12:21:48.393Z,100843
2018-06-20T12:24:22.939Z,100834
2018-06-20T12:26:57.483Z,100833
2018-06-20T12:29:32.582Z,100835
2018-06-20T12:32:06.877Z,100836
2018-06-20T12:34:41.307Z,100836
2018-06-20T12:37:15.754Z,100833
2018-06-20T12:39:44.618Z,100829
2018-06-20T12:42:15.412Z,100833
2018-06-20T12:44:44.230Z,100827
2018-06-20T12:47:13.070Z,100827
2018-06-20T12:49:41.919Z,100821
2018-06-20T12:52:10.757Z,100819
2018-06-20T12:54:40.345Z,100818
2018-06-20T12:57:09.188Z,100815
2018-06-20T12:59:38.031Z,100808
2018-06-20T13:02:06.882Z,100808
2018-06-20T13:04:35.718Z,100807
2018-06-20T13:07:04.569Z,100808
2018-06-20T13:09:33.414Z,100809
2018-06-20T13:12:02.270Z,100807
2018-06-20T13:14:31.106Z,100801
2018-06-20T13:16:59.955Z,100795
2018-06-20T13:19:28.786Z,100797
2018-06-20T13:21:57.644Z,100797
2018-06-20T13:24:26.490Z,100795
2018-06-20T13:26:55.469Z,100789
2018-06-20T13:29:24.169Z,100772
2018-06-20T13:31:53.795Z,100786
2018-06-20T13:34:27.633Z,100782
2018-06-20T13:36:59.290Z,100782
2018-06-20T13:39:32.018Z,100776
2018-06-20T13:42:00.809Z,100779
2018-06-20T13:44:29.638Z,100776
2018-06-20T13:46:59.240Z,100771
2018-06-20T13:49:28.086Z,100776
2018-06-20T13:51:56.921Z,100772
2018-06-20T13:54:25.776Z,100773
2018-06-20T13:56:54.613Z,100761
2018-06-20T13:59:23.485Z,100762
2018-06-20T14:01:52.312Z,100761
2018-06-20T14:04:21.885Z,100763
2018-06-20T14:06:51.310Z,100759
2018-06-20T14:09:20.893Z,100747
2018-06-20T14:11:49.754Z,100747
2018-06-20T14:14:18.576Z,100750
2018-06-20T14:16:47.465Z,100752
2018-06-20T14:19:16.279Z,100745
2018-06-20T14:21:45.126Z,100740
2018-06-20T14:24:13.974Z,100752
2018-06-20T14:26:43.552Z,100757
2018-06-20T14:29:12.389Z,100747
2018-06-20T14:31:41.340Z,100745
2018-06-20T14:34:10.249Z,100739
2018-06-20T14:36:41.775Z,100738
2018-06-20T14:39:15.670Z,100738
2018-06-20T14:41:44.318Z,100733
2018-06-20T14:44:13.152Z,100734
2018-06-20T14:46:42.002Z,100736
2018-06-20T14:49:10.838Z,100729
2018-06-20T14:51:39.683Z,100721
2018-06-20T14:54:08.642Z,100722
2018-06-20T14:56:38.237Z,100718
2018-06-20T14:59:07.812Z,100717
2018-06-20T15:01:36.673Z,100708
2018-06-20T15:04:05.523Z,100712
2018-06-20T15:06:34.361Z,100714
2018-06-20T15:09:03.196Z,100716
2018-06-20T15:11:32.770Z,100713
2018-06-20T15:14:01.647Z,100710
2018-06-20T15:16:30.487Z,100711
2018-06-20T15:19:00.061Z,100712
2018-06-20T15:21:28.901Z,100711
2018-06-20T15:23:57.765Z,100700
2018-06-20T15:26:27.351Z,100703
2018-06-20T15:28:57.132Z,100693
2018-06-20T15:31:27.766Z,100687
2018-06-20T15:34:02.133Z,100687
2018-06-20T15:36:34.495Z,100681
2018-06-20T15:39:03.335Z,100689
2018-06-20T15:41:32.175Z,100681
2018-06-20T15:44:01.024Z,100666
2018-06-20T15:46:29.864Z,100676
2018-06-20T15:48:58.717Z,100674
2018-06-20T15:51:27.561Z,100669
2018-06-20T15:53:56.420Z,100670
2018-06-20T15:56:25.998Z,100664
2018-06-20T15:58:54.848Z,100662
2018-06-20T16:01:23.694Z,100653
2018-06-20T16:03:52.530Z,100659
2018-06-20T16:06:21.374Z,100663
2018-06-20T16:08:50.210Z,100659
2018-06-20T16:11:19.050Z,100657
2018-06-20T16:13:47.906Z,100655
2018-06-20T16:16:16.749Z,100651
2018-06-20T16:18:45.600Z,100645
2018-06-20T16:21:14.464Z,100655
2018-06-20T16:23:43.423Z,100649
2018-06-20T16:26:12.303Z,100649
2018-06-20T16:28:42.062Z,100646
2018-06-20T16:31:10.895Z,100645
2018-06-20T16:33:39.727Z,100640
2018-06-20T16:36:09.303Z,100640
2018-06-20T16:38:38.167Z,100638
2018-06-20T16:41:07.007Z,100640
2018-06-20T16:43:35.845Z,100636
2018-06-20T16:46:04.691Z,100637
2018-06-20T16:48:33.542Z,100633
2018-06-20T16:51:02.391Z,100635
2018-06-20T16:53:31.974Z,100632
2018-06-20T16:56:01.550Z,100633
2018-06-20T16:58:30.987Z,100629
2018-06-20T17:01:00.582Z,100630
2018-06-20T17:03:29.433Z,100629
2018-06-20T17:05:58.264Z,100625
2018-06-20T17:08:27.106Z,100627
2018-06-20T17:10:55.943Z,100623
2018-06-20T17:13:25.543Z,100620
2018-06-20T17:15:55.163Z,100628
2018-06-20T17:18:27.801Z,100616
2018-06-20T17:21:00.623Z,100618
2018-06-20T17:23:31.229Z,100610
2018-06-20T17:26:00.071Z,100609
2018-06-20T17:28:28.927Z,100608
2018-06-20T17:30:57.784Z,100605
2018-06-20T17:33:26.626Z,100612
2018-06-20T17:35:55.471Z,100604
2018-06-20T17:38:24.305Z,100602
2018-06-20T17:40:53.146Z,100608
2018-06-20T17:43:21.979Z,100608
2018-06-20T17:45:50.825Z,100603
2018-06-20T17:48:19.665Z,100602
2018-06-20T17:50:48.529Z,100599
2018-06-20T17:53:18.123Z,100599
2018-06-20T17:55:46.988Z,100595
2018-06-20T17:58:15.803Z,100599
2018-06-20T18:00:44.650Z,100595
2018-06-20T18:03:13.486Z,100591
2018-06-20T18:05:46.127Z,100591
2018-06-20T18:08:18.871Z,100592
2018-06-20T18:10:49.278Z,100589
2018-06-20T18:13:18.887Z,100590
2018-06-20T18:15:53.377Z,100591
2018-06-20T18:18:22.216Z,100593
2018-06-20T18:20:51.062Z,100590
2018-06-20T18:23:19.895Z,100587
2018-06-20T18:25:48.753Z,100588
2018-06-20T18:28:17.602Z,100583
2018-06-20T18:30:46.445Z,100589
2018-06-20T18:33:15.282Z,100590
2018-06-20T18:35:44.170Z,100586
2018-06-20T18:38:12.974Z,100582
2018-06-20T18:40:42.561Z,100590
2018-06-20T18:43:11.416Z,100592
2018-06-20T18:45:40.270Z,100614
2018-06-20T18:48:09.115Z,100595
2018-06-20T18:50:37.951Z,100587
2018-06-20T18:53:06.800Z,100588
2018-06-20T18:55:35.644Z,100581
2018-06-20T18:58:05.231Z,100587
2018-06-20T19:00:40.141Z,100588
2018-06-20T19:03:08.931Z,100587
2018-06-20T19:05:43.179Z,100580
2018-06-20T19:08:12.778Z,100581
2018-06-20T19:10:41.623Z,100586
2018-06-20T19:13:10.487Z,100583
2018-06-20T19:15:40.107Z,100582
2018-06-20T19:18:08.973Z,100575
2018-06-20T19:20:38.586Z,100577
2018-06-20T19:23:07.454Z,100618
2018-06-20T19:25:36.275Z,100575
2018-06-20T19:28:05.866Z,100579
2018-06-20T19:30:34.712Z,100574
2018-06-20T19:33:03.823Z,100582
2018-06-20T19:35:32.661Z,100582
2018-06-20T19:38:02.280Z,100588
2018-06-20T19:40:31.132Z,100581
2018-06-20T19:42:59.981Z,100581
2018-06-20T19:45:28.829Z,100583
2018-06-20T19:47:58.417Z,100593
2018-06-20T19:50:27.269Z,100595
2018-06-20T19:52:56.111Z,100587
2018-06-20T19:55:25.698Z,100592
2018-06-20T19:57:54.553Z,100602
2018-06-20T20:00:23.423Z,100590
2018-06-20T20:02:52.255Z,100587
2018-06-20T20:05:21.101Z,100596
2018-06-20T20:07:49.944Z,100600
2018-06-20T20:10:18.804Z,100590
2018-06-20T20:12:47.651Z,100595
2018-06-20T20:15:17.241Z,100597
2018-06-20T20:17:46.131Z,100598
2018-06-20T20:20:14.947Z,100590
2018-06-20T20:22:43.824Z,100611
2018-06-20T20:25:12.631Z,100601
2018-06-20T20:27:42.218Z,100607
2018-06-20T20:30:11.052Z,100601
2018-06-20T20:32:40.002Z,100600
2018-06-20T20:35:08.730Z,100606
2018-06-20T20:37:38.322Z,100598
2018-06-20T20:40:07.943Z,100603
2018-06-20T20:42:37.535Z,100603
2018-06-20T20:45:07.125Z,100602
2018-06-20T20:47:35.969Z,100603
2018-06-20T20:50:04.836Z,100602
2018-06-20T20:52:33.671Z,100597
2018-06-20T20:56:55.967Z,100609
2018-06-20T20:59:25.396Z,100603
2018-06-20T21:01:54.982Z,100604
2018-06-20T21:04:23.830Z,100612
2018-06-20T21:06:52.724Z,100613
2018-06-20T21:09:21.536Z,100606
2018-06-20T21:11:50.375Z,100616
2018-06-20T21:14:19.219Z,100596
2018-06-20T21:16:48.057Z,100598
2018-06-20T21:19:16.961Z,100598
2018-06-20T21:21:46.500Z,100596
2018-06-20T21:24:15.348Z,100592
2018-06-20T21:26:44.933Z,100595
2018-06-20T21:29:13.784Z,100595
2018-06-20T21:31:42.627Z,100593
2018-06-20T21:34:11.463Z,100590
2018-06-20T21:36:40.294Z,100580
2018-06-20T21:39:09.133Z,100578
2018-06-20T21:41:37.974Z,100576
2018-06-20T21:44:07.563Z,100575
2018-06-20T21:46:36.404Z,100577
2018-06-20T21:49:05.249Z,100577
2018-06-20T21:51:34.080Z,100582
2018-06-20T21:54:02.943Z,100578
2018-06-20T21:56:31.790Z,100574
2018-06-20T21:59:00.631Z,100583
2018-06-20T22:01:29.473Z,100574
2018-06-20T22:03:58.315Z,100580
2018-06-20T22:06:27.921Z,100576
2018-06-20T22:08:57.524Z,100572
2018-06-20T22:11:26.361Z,100572
2018-06-20T22:13:55.207Z,100571
2018-06-20T22:16:24.054Z,100566
2018-06-20T22:18:52.914Z,100563
2018-06-20T22:21:21.763Z,100566
2018-06-20T22:23:50.599Z,100558
2018-06-20T22:26:19.446Z,100559
2018-06-20T22:28:48.281Z,100564
2018-06-20T22:31:17.133Z,100553
2018-06-20T22:33:45.983Z,100556
2018-06-20T22:36:14.825Z,100560
2018-06-20T22:38:43.670Z,100550
2018-06-20T22:41:12.515Z,100553
2018-06-20T22:43:41.348Z,100548
2018-06-20T22:46:10.186Z,100550
2018-06-20T22:48:39.022Z,100546
2018-06-20T22:51:07.869Z,100549
2018-06-20T22:53:37.454Z,100543
2018-06-20T22:56:06.292Z,100546
2018-06-20T22:58:35.129Z,100544
2018-06-20T23:01:03.971Z,100548
2018-06-20T23:03:32.807Z,100538
2018-06-20T23:06:01.644Z,100545
2018-06-20T23:08:30.479Z,100542
2018-06-20T23:10:59.326Z,100530
2018-06-20T23:13:28.167Z,100533
2018-06-20T23:15:57.003Z,100536
2018-06-20T23:18:25.851Z,100543
2018-06-20T23:20:54.702Z,100546
2018-06-20T23:23:24.287Z,100542
2018-06-20T23:25:53.137Z,100545
2018-06-20T23:28:21.979Z,100537
2018-06-20T23:30:50.842Z,100535
2018-06-20T23:33:19.675Z,100526
2018-06-20T23:35:48.525Z,100530
2018-06-20T23:38:17.368Z,100525
2018-06-20T23:40:46.942Z,100522
2018-06-20T23:43:15.787Z,100516
2018-06-20T23:45:44.638Z,100517
2018-06-20T23:48:13.487Z,100520
2018-06-20T23:50:42.339Z,100512
2018-06-20T23:53:11.185Z,100512
2018-06-20T23:55:40.039Z,100516
2018-06-20T23:58:08.913Z,100520
